Terminal Aerodrome Forecast
Issued by NWS

Home | Current Version | Previous Version | Text Only | Print | Product List | Glossary On
Versions: 1 2 3 4 5 6 7 8 9 10 11 12 13 14 15 16 17 18 19 20
000
FTUS46 KLOX 020011 CCA
TAFBUR
TAF COR
KBUR 020011Z 0200/0224 19009KT P6SM BKN250
     FM020300 16006KT P6SM BKN250
     FM020600 14005KT P6SM OVC015
     FM021700 17005KT P6SM SCT025
     FM022000 18007KT P6SM SCT250=

USA.gov is the U.S. government's official web portal to all federal, state and local government web resources and services.